Terminal Aerodrome Forecast
Issued by NWS

Home | Current Version | Previous Version | Text Only | Print | Product List | Glossary On
Versions: 1 2 3 4 5 6 7 8 9 10 11 12 13 14
000
FTUS43 KICT 110523
TAFSLN
TAF
KSLN 110523Z 1106/1206 24008KT P6SM SKC
     FM111300 29014G20KT P6SM SCT250
     FM111700 32025G33KT P6SM SCT150
     FM120100 33015KT P6SM BKN040=

USA.gov is the U.S. government's official web portal to all federal, state and local government web resources and services.